Time;durP1;ratioP1;P1;durP2;ratioP2;P2;SDS_P1;SDS_P2;PMS_P1;PMS_P2;Temp;Humidity;BMP_temperature;BMP_pressure;BME280_temperature;BME280_humidity;BME280_pressure;Samples;Min_cycle;Max_cycle;Signal;HPM_P1;HPM_P2
2023/10/22 00:01:48;;;;;;;4.43;1.17;;;14.00;86.00;;;;;;5045558;28;20428;-71
2023/10/22 00:04:15;;;;;;;2.95;1.00;;;14.00;86.70;;;;;;5051755;28;20425;-71
2023/10/22 00:06:42;;;;;;;2.78;1.00;;;14.00;86.10;;;;;;5046166;28;20919;-70
2023/10/22 00:09:10;;;;;;;4.20;1.10;;;14.00;86.30;;;;;;5046488;28;20429;-71
2023/10/22 00:11:37;;;;;;;2.33;0.90;;;14.00;86.20;;;;;;5046881;28;20940;-71
2023/10/22 00:14:04;;;;;;;3.58;1.23;;;14.00;86.20;;;;;;5043056;28;20436;-73
2023/10/22 00:16:31;;;;;;;3.40;0.90;;;13.90;87.10;;;;;;5043705;28;20448;-71
2023/10/22 00:18:57;;;;;;;2.50;0.90;;;13.90;87.40;;;;;;5045305;28;20440;-72
2023/10/22 00:21:24;;;;;;;3.72;0.80;;;13.90;86.90;;;;;;5045917;28;20961;-71
2023/10/22 00:23:51;;;;;;;3.08;1.00;;;13.90;87.50;;;;;;5044905;28;20440;-71
2023/10/22 00:26:19;;;;;;;5.85;1.40;;;13.90;88.00;;;;;;5044854;28;20789;-71
2023/10/22 00:28:46;;;;;;;3.80;1.00;;;13.80;87.90;;;;;;5045512;28;20543;-72
2023/10/22 00:31:12;;;;;;;2.53;0.80;;;13.80;87.80;;;;;;5041920;28;20520;-71
2023/10/22 00:33:39;;;;;;;2.30;0.80;;;13.80;88.30;;;;;;5047698;28;20436;-71
2023/10/22 00:36:06;;;;;;;3.80;1.00;;;13.80;88.80;;;;;;5049386;28;20931;-71
2023/10/22 00:38:33;;;;;;;2.78;0.77;;;13.70;89.20;;;;;;5048822;28;20413;-71
2023/10/22 00:41:00;;;;;;;2.72;0.98;;;13.70;89.60;;;;;;5047037;28;20429;-72
2023/10/22 00:43:28;;;;;;;3.40;1.00;;;13.60;90.00;;;;;;5042405;28;20433;-71
2023/10/22 00:45:55;;;;;;;3.25;1.02;;;13.60;90.10;;;;;;5040674;28;20426;-70
2023/10/22 00:48:23;;;;;;;4.40;1.00;;;13.60;90.30;;;;;;5048591;28;20823;-71
2023/10/22 00:50:50;;;;;;;3.20;0.90;;;13.50;90.50;;;;;;5041921;28;20459;-71
2023/10/22 00:53:17;;;;;;;3.10;1.10;;;13.50;90.50;;;;;;5045277;28;20456;-71
2023/10/22 00:55:45;;;;;;;2.90;0.90;;;13.50;90.80;;;;;;5049061;28;20460;-71
2023/10/22 00:58:13;;;;;;;3.53;1.30;;;13.50;90.80;;;;;;5044777;28;20754;-72
2023/10/22 01:00:41;;;;;;;3.78;0.90;;;13.50;90.80;;;;;;5041505;28;20948;-72
2023/10/22 01:03:08;;;;;;;1.70;0.80;;;13.50;91.10;;;;;;5045665;28;20792;-72
2023/10/22 01:05:37;;;;;;;2.20;0.80;;;13.40;91.20;;;;;;5044283;28;20437;-71
2023/10/22 01:08:05;;;;;;;2.92;0.85;;;13.40;91.20;;;;;;5045126;28;20491;-71
2023/10/22 01:10:32;;;;;;;3.58;1.10;;;13.40;91.40;;;;;;5044624;28;20429;-71
2023/10/22 01:12:59;;;;;;;3.60;1.13;;;13.30;91.60;;;;;;5041072;28;20468;-71
2023/10/22 01:15:26;;;;;;;2.22;0.85;;;13.30;91.60;;;;;;5044454;28;20446;-72
2023/10/22 01:17:55;;;;;;;2.65;0.85;;;13.30;91.70;;;;;;5044384;28;20997;-71
2023/10/22 01:20:22;;;;;;;3.90;0.70;;;13.30;91.90;;;;;;5044152;28;20848;-72
2023/10/22 01:22:49;;;;;;;2.97;0.90;;;13.30;92.00;;;;;;5045424;28;20551;-71
2023/10/22 01:25:17;;;;;;;1.80;0.70;;;13.30;92.10;;;;;;5043491;28;20939;-71
2023/10/22 01:27:44;;;;;;;2.17;0.80;;;13.30;92.30;;;;;;5041409;28;20436;-70
2023/10/22 01:30:11;;;;;;;1.60;0.70;;;13.30;92.60;;;;;;5041466;28;20429;-71
2023/10/22 01:32:38;;;;;;;2.15;0.80;;;13.30;92.60;;;;;;5041120;28;20437;-70
2023/10/22 01:35:06;;;;;;;2.47;1.00;;;13.30;92.60;;;;;;5044670;28;20455;-72
2023/10/22 01:37:34;;;;;;;3.47;1.10;;;13.20;92.70;;;;;;5041026;28;20429;-72
2023/10/22 01:40:03;;;;;;;2.83;0.90;;;13.20;92.90;;;;;;5041716;28;20664;-71
2023/10/22 01:42:31;;;;;;;4.07;1.20;;;13.20;92.90;;;;;;5040737;28;20864;-71
2023/10/22 01:44:58;;;;;;;3.17;0.90;;;13.20;93.10;;;;;;5043524;28;20441;-70
2023/10/22 01:47:24;;;;;;;2.40;1.10;;;13.20;93.10;;;;;;5041368;28;20432;-71
2023/10/22 01:49:51;;;;;;;2.63;0.88;;;13.20;93.20;;;;;;5039938;28;20439;-71
2023/10/22 01:52:18;;;;;;;3.55;1.10;;;13.20;93.20;;;;;;5042158;28;20428;-71
2023/10/22 01:54:45;;;;;;;1.70;0.70;;;13.20;93.30;;;;;;5083619;22;21237;-68
2023/10/22 01:57:12;;;;;;;3.22;0.90;;;13.20;93.50;;;;;;5075909;28;20429;-68
2023/10/22 01:59:41;;;;;;;2.50;0.70;;;13.20;93.50;;;;;;5074216;28;20572;-68
2023/10/22 02:02:08;;;;;;;1.98;0.80;;;13.20;93.60;;;;;;5074056;28;20499;-69
2023/10/22 02:04:34;;;;;;;3.38;1.10;;;13.20;93.70;;;;;;5081498;28;20433;-69
2023/10/22 02:07:01;;;;;;;2.00;0.90;;;13.20;93.70;;;;;;5076564;28;20927;-69
2023/10/22 02:09:28;;;;;;;2.90;1.00;;;13.20;93.80;;;;;;5082101;28;20434;-68
2023/10/22 02:11:55;;;;;;;2.30;1.00;;;13.10;94.00;;;;;;5084049;28;20452;-68
2023/10/22 02:14:22;;;;;;;2.00;0.90;;;13.10;94.20;;;;;;5086925;28;20513;-68
2023/10/22 02:16:50;;;;;;;3.58;1.00;;;13.10;94.50;;;;;;5074507;28;20433;-69
2023/10/22 02:19:17;;;;;;;3.03;0.85;;;13.10;94.50;;;;;;5082639;28;20788;-69
2023/10/22 02:21:44;;;;;;;2.30;0.80;;;13.10;94.80;;;;;;5079887;28;20422;-69
2023/10/22 02:24:11;;;;;;;2.35;1.00;;;13.00;94.80;;;;;;5084299;28;20433;-69
2023/10/22 02:26:38;;;;;;;2.17;0.90;;;13.10;94.90;;;;;;5083548;28;20432;-69
2023/10/22 02:29:04;;;;;;;2.05;0.70;;;13.00;95.00;;;;;;5081042;28;20917;-69
2023/10/22 02:31:31;;;;;;;2.30;0.75;;;13.00;95.10;;;;;;5079703;28;20427;-69
2023/10/22 02:34:06;;;;;;;2.25;0.90;;;13.00;95.40;;;;;;5080132;28;20595;-69
2023/10/22 02:36:34;;;;;;;2.17;0.70;;;13.00;95.60;;;;;;5082290;28;20494;-70
2023/10/22 02:39:01;;;;;;;2.95;1.17;;;13.00;95.60;;;;;;5085151;28;20441;-69
2023/10/22 02:41:28;;;;;;;2.20;0.90;;;13.00;95.80;;;;;;5082770;28;20425;-69
2023/10/22 02:43:55;;;;;;;4.00;0.93;;;12.90;96.00;;;;;;5083646;28;20433;-69
2023/10/22 02:46:22;;;;;;;3.55;0.90;;;12.90;95.90;;;;;;5077952;28;20426;-69
2023/10/22 02:48:49;;;;;;;3.38;0.90;;;13.00;96.10;;;;;;5078426;28;20434;-69
2023/10/22 02:51:18;;;;;;;2.92;0.90;;;12.90;96.10;;;;;;5077776;28;20428;-70
2023/10/22 02:53:45;;;;;;;2.63;0.80;;;12.90;96.50;;;;;;5080691;28;20426;-69
2023/10/22 02:56:11;;;;;;;2.47;0.90;;;12.90;96.20;;;;;;5081625;28;20434;-69
2023/10/22 02:58:40;;;;;;;2.90;0.80;;;12.90;96.30;;;;;;5084052;28;20434;-69
2023/10/22 03:01:08;;;;;;;2.25;1.05;;;12.90;96.40;;;;;;5079606;28;20821;-69
2023/10/22 03:03:39;;;;;;;2.10;0.90;;;12.90;96.50;;;;;;5082467;28;20430;-69
2023/10/22 03:06:06;;;;;;;3.20;0.90;;;12.90;96.70;;;;;;5081280;28;20488;-69
2023/10/22 03:08:34;;;;;;;3.15;0.90;;;12.90;96.80;;;;;;5081532;28;20445;-69
2023/10/22 03:11:01;;;;;;;3.33;0.93;;;12.90;96.80;;;;;;5079226;28;20456;-69
2023/10/22 03:13:28;;;;;;;2.53;1.00;;;12.80;96.80;;;;;;5080385;28;20465;-69
2023/10/22 03:15:54;;;;;;;1.52;0.75;;;12.80;96.80;;;;;;5077203;28;20762;-69
2023/10/22 03:18:22;;;;;;;3.20;1.00;;;12.80;97.20;;;;;;5075404;28;20427;-69
2023/10/22 03:20:49;;;;;;;2.60;0.90;;;12.80;97.10;;;;;;5081753;28;20668;-69
2023/10/22 03:23:15;;;;;;;3.88;1.00;;;12.80;97.40;;;;;;5082341;28;20429;-69
2023/10/22 03:25:45;;;;;;;1.73;0.70;;;12.80;97.60;;;;;;5080750;28;20540;-69
2023/10/22 03:28:11;;;;;;;1.67;0.80;;;12.80;97.50;;;;;;5079199;28;20945;-69
2023/10/22 03:30:38;;;;;;;2.53;0.90;;;12.80;97.60;;;;;;5078155;28;20422;-69
2023/10/22 03:33:05;;;;;;;2.67;1.00;;;12.80;97.80;;;;;;5086353;28;20406;-69
2023/10/22 03:35:35;;;;;;;1.90;0.63;;;12.80;97.80;;;;;;5083162;28;20517;-69
2023/10/22 03:38:02;;;;;;;1.90;0.70;;;12.80;97.70;;;;;;5078223;28;20442;-69
2023/10/22 03:40:29;;;;;;;1.50;0.60;;;12.80;97.60;;;;;;5080559;28;20432;-68
2023/10/22 03:42:57;;;;;;;1.50;0.60;;;12.80;97.70;;;;;;5081478;28;20417;-69
2023/10/22 03:45:24;;;;;;;1.67;0.50;;;12.80;97.80;;;;;;5080680;28;20425;-68
2023/10/22 03:47:50;;;;;;;1.30;0.55;;;12.80;97.60;;;;;;5074693;28;20426;-69
2023/10/22 03:50:17;;;;;;;1.58;0.60;;;12.90;97.70;;;;;;5080730;28;21017;-69
2023/10/22 03:52:44;;;;;;;1.27;0.40;;;12.90;97.70;;;;;;5076865;28;20618;-69
2023/10/22 03:55:11;;;;;;;1.23;0.50;;;12.90;97.70;;;;;;5081934;28;20615;-69
2023/10/22 03:57:37;;;;;;;1.10;0.50;;;12.90;97.60;;;;;;5077209;28;20429;-69
2023/10/22 04:00:07;;;;;;;1.60;0.40;;;12.90;97.60;;;;;;5075309;28;20428;-69
2023/10/22 04:02:34;;;;;;;1.50;0.60;;;12.90;97.60;;;;;;5075243;28;20511;-69
2023/10/22 04:05:01;;;;;;;1.17;0.50;;;12.90;97.60;;;;;;5074149;28;20433;-68
2023/10/22 04:07:27;;;;;;;1.10;0.40;;;12.90;97.70;;;;;;5077614;28;20457;-69
2023/10/22 04:09:54;;;;;;;1.33;0.50;;;12.90;97.70;;;;;;5077087;28;20446;-69
2023/10/22 04:12:22;;;;;;;1.00;0.40;;;12.90;97.90;;;;;;5076457;28;20441;-68
2023/10/22 04:14:48;;;;;;;0.98;0.38;;;12.90;98.00;;;;;;5074025;28;20528;-68
2023/10/22 04:17:18;;;;;;;1.17;0.40;;;12.90;98.00;;;;;;5077017;28;22383;-68
2023/10/22 04:19:45;;;;;;;1.00;0.40;;;12.90;98.10;;;;;;5080828;28;20478;-69
2023/10/22 04:22:12;;;;;;;1.20;0.40;;;12.90;98.10;;;;;;5066923;28;20876;-69
2023/10/22 04:24:38;;;;;;;1.10;0.40;;;12.90;98.00;;;;;;5079619;28;20445;-69
2023/10/22 04:27:05;;;;;;;0.95;0.30;;;12.90;98.10;;;;;;5078494;28;21042;-68
2023/10/22 04:29:32;;;;;;;1.20;0.40;;;12.90;98.20;;;;;;5077543;28;20426;-68
2023/10/22 04:31:59;;;;;;;1.70;0.40;;;12.90;98.10;;;;;;5076422;28;20531;-68
2023/10/22 04:34:27;;;;;;;1.10;0.30;;;12.90;98.10;;;;;;5075597;28;20436;-67
2023/10/22 04:36:54;;;;;;;1.00;0.40;;;12.90;98.30;;;;;;5081310;28;20449;-68
2023/10/22 04:39:21;;;;;;;1.15;0.40;;;12.90;98.40;;;;;;5083037;28;20429;-68
2023/10/22 04:41:47;;;;;;;0.80;0.40;;;12.80;98.50;;;;;;5084639;28;20418;-68
2023/10/22 04:44:14;;;;;;;0.70;0.30;;;12.80;98.60;;;;;;5081636;28;20434;-69
2023/10/22 04:46:41;;;;;;;1.37;0.40;;;12.80;98.70;;;;;;5076036;28;20915;-67
2023/10/22 04:49:07;;;;;;;0.83;0.30;;;12.80;98.90;;;;;;5084790;28;20426;-68
2023/10/22 04:51:37;;;;;;;1.00;0.40;;;12.80;99.00;;;;;;5080425;28;20523;-67
2023/10/22 04:54:04;;;;;;;1.60;0.50;;;12.70;99.10;;;;;;5084685;28;20564;-68
2023/10/22 04:56:31;;;;;;;0.90;0.40;;;12.70;99.10;;;;;;5084744;28;20428;-67
2023/10/22 04:58:58;;;;;;;0.82;0.30;;;12.70;99.30;;;;;;5081272;28;20430;-68
2023/10/22 05:01:24;;;;;;;1.20;0.50;;;12.70;99.30;;;;;;5081733;28;20516;-68
2023/10/22 05:03:51;;;;;;;0.93;0.40;;;12.70;99.50;;;;;;5082156;28;20464;-67
2023/10/22 05:06:18;;;;;;;1.30;0.40;;;12.80;99.50;;;;;;5082182;28;20548;-67
2023/10/22 05:08:46;;;;;;;1.02;0.40;;;12.80;99.50;;;;;;5083828;28;20769;-67
2023/10/22 05:11:13;;;;;;;0.80;0.40;;;12.80;99.60;;;;;;5082727;28;20425;-68
2023/10/22 05:13:40;;;;;;;0.77;0.30;;;12.80;99.70;;;;;;5085740;28;20421;-68
2023/10/22 05:16:09;;;;;;;1.30;0.40;;;12.80;99.60;;;;;;5084422;28;20417;-68
2023/10/22 05:18:37;;;;;;;1.30;0.40;;;12.80;99.70;;;;;;5081282;28;20414;-68
2023/10/22 05:21:05;;;;;;;1.30;0.40;;;12.80;99.90;;;;;;5082239;28;20425;-68
2023/10/22 05:23:33;;;;;;;1.90;0.47;;;12.80;99.80;;;;;;5078887;28;20478;-68
2023/10/22 05:26:09;;;;;;;1.02;0.40;;;12.80;99.90;;;;;;5080463;28;20414;-68
2023/10/22 05:28:36;;;;;;;1.00;0.40;;;12.80;99.90;;;;;;5083835;28;20425;-68
2023/10/22 05:31:03;;;;;;;0.90;0.40;;;12.80;99.90;;;;;;5086777;28;20423;-67
2023/10/22 05:33:30;;;;;;;0.83;0.40;;;12.80;99.90;;;;;;5088517;28;20610;-67
2023/10/22 05:35:57;;;;;;;1.00;0.40;;;12.80;99.90;;;;;;5079052;28;20429;-67
2023/10/22 05:38:23;;;;;;;1.40;0.40;;;12.80;99.90;;;;;;5077480;28;20419;-67
2023/10/22 05:40:50;;;;;;;0.90;0.40;;;12.80;99.90;;;;;;5082507;28;20407;-67
2023/10/22 05:43:18;;;;;;;1.45;0.40;;;12.80;99.90;;;;;;5082562;28;20498;-67
2023/10/22 05:45:45;;;;;;;0.90;0.40;;;12.80;99.90;;;;;;5083740;28;20943;-67
2023/10/22 05:48:12;;;;;;;0.80;0.30;;;12.80;99.90;;;;;;5078892;28;20432;-67
2023/10/22 05:50:39;;;;;;;0.90;0.40;;;12.70;99.90;;;;;;5082943;28;20405;-67
2023/10/22 05:53:07;;;;;;;1.90;0.40;;;12.80;99.90;;;;;;5090679;28;20415;-66
2023/10/22 05:55:34;;;;;;;2.08;0.68;;;12.70;99.90;;;;;;5084646;28;20413;-67
2023/10/22 05:58:01;;;;;;;0.98;0.40;;;12.70;99.90;;;;;;5075584;28;20408;-67
2023/10/22 06:00:29;;;;;;;0.90;0.40;;;12.70;99.90;;;;;;5083834;28;20433;-67
2023/10/22 06:02:56;;;;;;;0.90;0.40;;;12.70;99.90;;;;;;5076367;28;20411;-67
2023/10/22 06:05:23;;;;;;;0.82;0.50;;;12.80;99.90;;;;;;5085688;28;20406;-67
2023/10/22 06:07:51;;;;;;;0.88;0.40;;;12.70;99.90;;;;;;5090834;28;20408;-67
2023/10/22 06:10:17;;;;;;;0.90;0.40;;;12.80;99.90;;;;;;5084610;28;21127;-66
2023/10/22 06:12:44;;;;;;;0.90;0.40;;;12.80;99.90;;;;;;5076479;28;20427;-66
2023/10/22 06:15:11;;;;;;;1.00;0.40;;;12.80;99.90;;;;;;5082492;28;20422;-66
2023/10/22 06:17:41;;;;;;;0.93;0.50;;;12.80;99.90;;;;;;5075591;28;20509;-66
2023/10/22 06:20:08;;;;;;;1.25;0.60;;;12.80;99.90;;;;;;5085127;28;20445;-66
2023/10/22 06:22:37;;;;;;;1.02;0.50;;;12.80;99.90;;;;;;5083852;28;21053;-66
2023/10/22 06:25:04;;;;;;;0.90;0.40;;;12.80;99.90;;;;;;5088633;28;20545;-66
2023/10/22 06:27:31;;;;;;;1.20;0.50;;;12.70;99.90;;;;;;5081207;28;20434;-66
2023/10/22 06:29:58;;;;;;;1.23;0.50;;;12.50;99.90;;;;;;5078603;28;20442;-66
2023/10/22 06:32:24;;;;;;;1.02;0.50;;;12.30;99.90;;;;;;5080004;28;20507;-66
2023/10/22 06:34:52;;;;;;;1.40;0.50;;;12.20;99.90;;;;;;5080024;28;20413;-66
2023/10/22 06:37:20;;;;;;;0.90;0.50;;;12.10;99.90;;;;;;5079560;28;20864;-66
2023/10/22 06:39:46;;;;;;;1.10;0.50;;;12.00;99.90;;;;;;5073332;28;20418;-66
2023/10/22 06:42:13;;;;;;;1.40;0.60;;;12.00;99.90;;;;;;5076826;28;20422;-66
2023/10/22 06:44:42;;;;;;;1.83;0.90;;;11.90;99.90;;;;;;5085278;28;20450;-66
2023/10/22 06:47:09;;;;;;;1.90;0.60;;;11.80;99.90;;;;;;5080885;28;20767;-66
2023/10/22 06:49:35;;;;;;;1.27;0.60;;;11.80;99.90;;;;;;5084819;28;20432;-66
2023/10/22 06:52:04;;;;;;;1.90;0.55;;;11.70;99.90;;;;;;5069761;28;20512;-66
2023/10/22 06:54:31;;;;;;;1.30;0.60;;;11.60;99.90;;;;;;5089244;28;20410;-66
2023/10/22 06:56:57;;;;;;;1.40;0.90;;;11.60;99.90;;;;;;5081712;28;20547;-66
2023/10/22 06:59:24;;;;;;;1.25;0.50;;;11.50;99.90;;;;;;5078664;28;20938;-66
2023/10/22 07:01:51;;;;;;;1.20;0.70;;;11.50;99.90;;;;;;5080692;28;20426;-66
2023/10/22 07:04:18;;;;;;;2.05;0.90;;;11.40;99.90;;;;;;5079092;28;20410;-66
2023/10/22 07:06:45;;;;;;;1.40;0.70;;;11.40;99.90;;;;;;5084761;28;20401;-72
2023/10/22 07:09:13;;;;;;;1.45;0.70;;;11.40;99.90;;;;;;5083685;28;20482;-72
2023/10/22 07:11:40;;;;;;;1.77;0.80;;;11.40;99.90;;;;;;5076689;28;20430;-69
2023/10/22 07:14:07;;;;;;;2.00;0.77;;;11.40;99.90;;;;;;5074376;28;20733;-69
2023/10/22 07:16:34;;;;;;;5.70;0.98;;;11.40;99.90;;;;;;5080872;28;20430;-69
2023/10/22 07:19:00;;;;;;;2.17;0.80;;;11.40;99.90;;;;;;5079830;28;20427;-71
2023/10/22 07:21:27;;;;;;;2.30;0.70;;;11.40;99.90;;;;;;5085771;28;20905;-69
2023/10/22 07:23:54;;;;;;;1.80;0.80;;;11.50;99.90;;;;;;5081000;28;20432;-69
2023/10/22 07:26:22;;;;;;;1.90;0.90;;;11.50;99.90;;;;;;5083323;28;20452;-71
2023/10/22 07:28:49;;;;;;;2.70;0.80;;;11.50;99.90;;;;;;5078907;28;20462;-69
2023/10/22 07:31:17;;;;;;;1.48;0.82;;;11.60;99.90;;;;;;5087553;28;20898;-68
2023/10/22 07:33:44;;;;;;;2.00;1.00;;;11.50;99.90;;;;;;5083874;28;20447;-67
2023/10/22 07:36:11;;;;;;;1.90;0.80;;;11.40;99.90;;;;;;5078005;28;20902;-67
2023/10/22 07:38:40;;;;;;;2.60;0.90;;;11.40;99.90;;;;;;5082418;28;20426;-66
2023/10/22 07:41:13;;;;;;;3.35;1.10;;;11.30;99.90;;;;;;5080907;28;20517;-67
2023/10/22 07:43:42;;;;;;;1.98;1.00;;;11.20;99.90;;;;;;5073303;28;20570;-67
2023/10/22 07:46:10;;;;;;;2.10;1.23;;;11.20;99.90;;;;;;5075612;28;20433;-67
2023/10/22 07:48:36;;;;;;;2.40;0.90;;;11.20;99.90;;;;;;5084416;28;20453;-67
2023/10/22 07:51:10;;;;;;;1.80;1.17;;;11.20;99.90;;;;;;5075091;28;20426;-65
2023/10/22 07:53:37;;;;;;;2.55;1.00;;;11.20;99.90;;;;;;5076884;28;20435;-68
2023/10/22 07:56:05;;;;;;;2.83;1.15;;;11.20;99.90;;;;;;5096724;22;20488;-70
2023/10/22 07:58:31;;;;;;;1.40;0.90;;;11.20;99.90;;;;;;5074139;28;20419;-68
2023/10/22 08:01:00;;;;;;;1.90;1.00;;;11.20;99.90;;;;;;5082611;28;20442;-69
2023/10/22 08:03:28;;;;;;;2.20;0.90;;;11.20;99.90;;;;;;5075580;28;20554;-69
2023/10/22 08:05:55;;;;;;;1.80;1.10;;;11.20;99.90;;;;;;5070770;28;20502;-68
2023/10/22 08:08:22;;;;;;;2.72;1.10;;;11.30;99.90;;;;;;5068840;28;20431;-69
2023/10/22 08:10:48;;;;;;;1.40;0.90;;;11.30;99.90;;;;;;5068523;28;20873;-69
2023/10/22 08:13:15;;;;;;;1.70;1.10;;;11.30;99.90;;;;;;5066324;28;20695;-69
2023/10/22 08:15:42;;;;;;;1.80;1.00;;;11.30;99.90;;;;;;5067215;28;20473;-72
2023/10/22 08:18:11;;;;;;;3.35;1.30;;;11.30;99.90;;;;;;5067433;28;20518;-69
2023/10/22 08:20:37;;;;;;;2.40;1.10;;;11.30;99.90;;;;;;5071965;28;20433;-70
2023/10/22 08:23:04;;;;;;;2.00;1.10;;;11.40;99.90;;;;;;5066708;28;20898;-69
2023/10/22 08:25:31;;;;;;;2.20;1.40;;;11.50;99.90;;;;;;5068333;28;20427;-69
2023/10/22 08:27:57;;;;;;;3.72;1.67;;;11.40;99.90;;;;;;5068537;28;20798;-69
2023/10/22 08:30:24;;;;;;;3.17;0.93;;;11.50;99.90;;;;;;5070903;28;22032;-68
2023/10/22 08:32:51;;;;;;;1.20;0.98;;;11.50;99.90;;;;;;5067958;28;20435;-68
2023/10/22 08:35:20;;;;;;;1.80;0.90;;;11.40;99.90;;;;;;5067874;28;20427;-68
2023/10/22 08:37:47;;;;;;;2.20;1.20;;;11.40;99.90;;;;;;5068442;28;20411;-68
2023/10/22 08:40:13;;;;;;;1.50;1.00;;;11.40;99.90;;;;;;5066510;28;20510;-69
2023/10/22 08:42:40;;;;;;;2.00;1.20;;;11.40;99.90;;;;;;5060874;28;20820;-69
2023/10/22 08:45:08;;;;;;;2.10;1.20;;;11.50;99.90;;;;;;5057256;28;20435;-70
2023/10/22 08:47:36;;;;;;;1.97;1.00;;;11.50;99.90;;;;;;5068112;28;20592;-68
2023/10/22 08:50:03;;;;;;;1.47;0.90;;;11.60;99.90;;;;;;5065501;28;20432;-68
2023/10/22 08:52:33;;;;;;;2.05;1.20;;;11.60;99.90;;;;;;5068113;28;20427;-68
2023/10/22 08:55:00;;;;;;;2.10;1.02;;;11.50;99.90;;;;;;5065405;28;20428;-68
2023/10/22 08:57:29;;;;;;;2.53;1.00;;;11.60;99.90;;;;;;5060873;28;20514;-69
2023/10/22 08:59:56;;;;;;;2.20;1.20;;;11.60;99.90;;;;;;5066339;28;20801;-69
2023/10/22 09:02:26;;;;;;;1.83;1.08;;;11.70;99.90;;;;;;5062515;28;20468;-68
2023/10/22 09:04:53;;;;;;;1.50;1.00;;;11.80;99.90;;;;;;5066257;28;20453;-69
2023/10/22 09:07:28;;;;;;;2.60;1.10;;;11.80;99.90;;;;;;5067356;28;20428;-69
2023/10/22 09:09:56;;;;;;;1.80;1.00;;;11.80;99.90;;;;;;5068044;28;20418;-68
2023/10/22 09:12:23;;;;;;;2.58;1.50;;;11.80;99.90;;;;;;5069854;28;20435;-68
2023/10/22 09:14:50;;;;;;;2.40;1.10;;;11.80;99.90;;;;;;5070767;28;20427;-68
2023/10/22 09:17:17;;;;;;;1.80;1.10;;;11.90;99.90;;;;;;5074638;28;20438;-69
2023/10/22 09:19:47;;;;;;;1.42;1.00;;;11.80;99.90;;;;;;5075302;28;20403;-70
2023/10/22 09:22:22;;;;;;;2.00;1.30;;;11.80;99.90;;;;;;5075788;28;20419;-68
2023/10/22 09:24:50;;;;;;;1.88;1.20;;;11.90;99.90;;;;;;5075132;28;20443;-68
2023/10/22 09:27:25;;;;;;;1.70;1.20;;;11.90;99.90;;;;;;5075918;28;20445;-69
2023/10/22 09:29:53;;;;;;;2.00;1.30;;;11.80;99.90;;;;;;5072734;28;20435;-68
2023/10/22 09:32:20;;;;;;;2.00;1.10;;;11.80;99.90;;;;;;5072677;28;20431;-69
2023/10/22 09:34:47;;;;;;;3.03;1.13;;;11.90;99.90;;;;;;5080956;28;20421;-69
2023/10/22 09:37:13;;;;;;;2.00;1.10;;;11.90;99.90;;;;;;5074121;28;20909;-69
2023/10/22 09:39:42;;;;;;;1.80;0.90;;;11.90;99.90;;;;;;5073303;28;20486;-68
2023/10/22 09:42:10;;;;;;;1.60;1.00;;;12.00;99.90;;;;;;5068076;28;20947;-70
2023/10/22 09:44:40;;;;;;;2.43;1.30;;;12.00;99.90;;;;;;5077306;28;21024;-68
2023/10/22 09:47:08;;;;;;;2.47;1.30;;;12.00;99.90;;;;;;5072615;28;20925;-68
2023/10/22 09:49:38;;;;;;;2.17;1.30;;;12.10;99.90;;;;;;5077590;28;20430;-68
2023/10/22 09:52:07;;;;;;;2.30;1.20;;;12.10;99.90;;;;;;5074360;28;20427;-66
2023/10/22 09:54:38;;;;;;;2.20;1.40;;;12.20;99.90;;;;;;5071629;28;20495;-68
2023/10/22 09:57:09;;;;;;;3.30;1.67;;;12.20;99.90;;;;;;5074076;28;20415;-68
2023/10/22 09:59:39;;;;;;;2.20;1.70;;;12.20;99.90;;;;;;5074736;28;20411;-70
2023/10/22 10:02:05;;;;;;;2.20;1.80;;;12.30;99.90;;;;;;5071761;28;20431;-68
2023/10/22 10:04:34;;;;;;;2.70;1.80;;;12.20;99.90;;;;;;5074585;28;20534;-69
2023/10/22 10:07:03;;;;;;;3.57;2.83;;;12.20;99.90;;;;;;5072675;28;20592;-67
2023/10/22 10:09:31;;;;;;;2.65;2.10;;;12.20;99.90;;;;;;5081863;28;20494;-69
2023/10/22 10:12:01;;;;;;;2.10;1.50;;;12.10;99.90;;;;;;5072279;28;20435;-69
2023/10/22 10:14:45;;;;;;;3.10;2.57;;;12.10;99.90;;;;;;5075245;28;20443;-66
2023/10/22 10:17:15;;;;;;;1.88;1.42;;;12.10;99.90;;;;;;5070039;28;20989;-68
2023/10/22 10:19:42;;;;;;;2.00;1.60;;;12.00;99.90;;;;;;5078525;28;20430;-68
2023/10/22 10:22:09;;;;;;;2.30;1.80;;;12.00;99.90;;;;;;5068255;28;20512;-68
2023/10/22 10:24:36;;;;;;;1.80;1.50;;;12.00;99.90;;;;;;5071619;28;20925;-66
2023/10/22 10:27:26;;;;;;;1.60;1.40;;;12.00;99.90;;;;;;5073523;28;20503;-69
2023/10/22 10:30:20;;;;;;;2.00;1.70;;;12.10;99.90;;;;;;5076606;28;20421;-68
2023/10/22 10:32:50;;;;;;;1.70;1.40;;;12.20;99.90;;;;;;5071759;28;20442;-68
2023/10/22 10:35:18;;;;;;;1.90;1.40;;;12.20;99.90;;;;;;5062643;28;20426;-67
2023/10/22 10:38:23;;;;;;;1.30;1.20;;;12.20;99.90;;;;;;5070696;28;20881;-67
2023/10/22 10:40:51;;;;;;;1.60;1.05;;;12.20;99.90;;;;;;5068142;28;20515;-68
2023/10/22 10:43:18;;;;;;;1.80;1.13;;;12.30;99.90;;;;;;5068818;28;20430;-69
2023/10/22 10:46:28;;;;;;;1.63;1.20;;;12.30;99.90;;;;;;5069797;28;20438;-68
2023/10/22 10:48:56;;;;;;;1.75;0.90;;;12.30;99.90;;;;;;5057639;28;20438;-68
2023/10/22 10:51:24;;;;;;;1.42;1.30;;;12.30;99.90;;;;;;5069878;28;20403;-68
2023/10/22 10:54:17;;;;;;;1.80;1.00;;;12.20;99.90;;;;;;5069495;28;20511;-68
2023/10/22 10:56:52;;;;;;;1.48;0.90;;;12.10;99.90;;;;;;5071054;28;20612;-68
2023/10/22 10:59:30;;;;;;;1.75;1.20;;;12.10;99.90;;;;;;5065980;28;20492;-70
2023/10/22 11:02:08;;;;;;;1.80;1.20;;;12.10;99.90;;;;;;5069113;28;20482;-67
2023/10/22 11:04:37;;;;;;;1.90;1.40;;;12.00;99.90;;;;;;5068141;28;20465;-68
2023/10/22 11:07:04;;;;;;;2.00;1.30;;;12.00;99.90;;;;;;5069118;28;20434;-67
2023/10/22 11:09:33;;;;;;;1.50;1.40;;;12.00;99.90;;;;;;5067971;28;20431;-68
2023/10/22 11:12:03;;;;;;;1.90;1.60;;;12.10;99.90;;;;;;5069865;28;20415;-68
2023/10/22 11:14:30;;;;;;;1.80;1.40;;;12.10;99.90;;;;;;5069827;28;20451;-68
2023/10/22 11:16:58;;;;;;;2.90;1.10;;;12.10;99.90;;;;;;5077582;28;20962;-69
2023/10/22 11:19:26;;;;;;;2.60;1.20;;;12.10;99.90;;;;;;5069747;28;20415;-68
2023/10/22 11:21:56;;;;;;;1.90;1.70;;;12.10;99.90;;;;;;5066730;28;20439;-68
2023/10/22 11:24:25;;;;;;;2.85;2.55;;;12.10;99.90;;;;;;5066503;28;20437;-66
2023/10/22 11:26:53;;;;;;;2.10;1.80;;;12.10;99.90;;;;;;5065521;28;21055;-69
2023/10/22 11:29:21;;;;;;;2.45;2.13;;;12.10;99.90;;;;;;5071600;28;20940;-68
2023/10/22 11:31:54;;;;;;;2.97;2.20;;;12.10;99.90;;;;;;5070808;28;20505;-68
2023/10/22 11:34:21;;;;;;;3.20;2.60;;;12.10;99.90;;;;;;5074915;28;20439;-68
2023/10/22 11:36:48;;;;;;;2.85;2.55;;;12.10;99.90;;;;;;5068524;28;20434;-68
2023/10/22 11:39:18;;;;;;;3.00;2.30;;;12.10;99.90;;;;;;5068516;28;20435;-68
2023/10/22 11:41:45;;;;;;;3.10;2.80;;;12.20;99.90;;;;;;5067021;28;20427;-67
2023/10/22 11:44:28;;;;;;;3.70;3.05;;;12.20;99.90;;;;;;5067993;28;20420;-71
2023/10/22 11:46:55;;;;;;;3.40;2.80;;;12.40;99.90;;;;;;5074086;28;20430;-71
2023/10/22 11:49:22;;;;;;;2.83;2.63;;;12.50;99.90;;;;;;5067975;28;20439;-72
2023/10/22 11:51:48;;;;;;;3.50;2.70;;;12.60;99.90;;;;;;5075736;28;20426;-71
2023/10/22 11:54:15;;;;;;;2.90;2.50;;;12.70;99.90;;;;;;5071803;28;20431;-69
2023/10/22 11:56:43;;;;;;;2.60;2.40;;;12.70;99.90;;;;;;5068373;28;20423;-69
2023/10/22 11:59:10;;;;;;;3.80;3.13;;;12.90;99.90;;;;;;5069882;28;20427;-69
2023/10/22 12:01:36;;;;;;;3.90;3.60;;;12.90;99.90;;;;;;5066513;28;20434;-69
2023/10/22 12:04:03;;;;;;;4.72;3.88;;;12.90;99.90;;;;;;5068502;28;20419;-69
2023/10/22 12:06:30;;;;;;;3.80;3.50;;;12.90;99.90;;;;;;5069889;28;20813;-69
2023/10/22 12:08:57;;;;;;;4.20;3.90;;;12.90;99.90;;;;;;5068502;28;20433;-75
2023/10/22 12:11:24;;;;;;;3.87;3.50;;;12.90;99.90;;;;;;5067668;28;20943;-70
2023/10/22 12:13:52;;;;;;;4.43;4.03;;;13.00;99.90;;;;;;5068554;28;20445;-69
2023/10/22 12:16:18;;;;;;;4.60;4.20;;;13.00;99.90;;;;;;5068208;28;20431;-71
2023/10/22 12:18:45;;;;;;;5.55;5.15;;;13.00;99.90;;;;;;5069235;28;20408;-70
2023/10/22 12:21:12;;;;;;;5.00;4.60;;;13.00;99.90;;;;;;5069208;28;20766;-70
2023/10/22 12:23:39;;;;;;;6.10;5.70;;;13.10;99.90;;;;;;5067757;28;20924;-69
2023/10/22 12:26:09;;;;;;;5.90;5.50;;;13.10;99.90;;;;;;5068486;28;20431;-68
2023/10/22 12:28:36;;;;;;;5.70;5.20;;;13.10;99.90;;;;;;5067899;28;20481;-70
2023/10/22 12:31:08;;;;;;;5.78;5.38;;;13.10;99.90;;;;;;5068052;28;20438;-68
2023/10/22 12:33:35;;;;;;;6.25;5.82;;;13.10;99.90;;;;;;5072361;28;20746;-69
2023/10/22 12:36:04;;;;;;;6.90;6.40;;;13.10;99.90;;;;;;5068202;28;20901;-70
2023/10/22 12:38:32;;;;;;;7.20;6.60;;;13.10;99.90;;;;;;5066712;28;20439;-69
2023/10/22 12:40:59;;;;;;;7.60;6.97;;;13.20;99.90;;;;;;5068729;28;20693;-68
2023/10/22 12:43:25;;;;;;;7.35;6.75;;;13.10;99.90;;;;;;5068662;28;20423;-68
2023/10/22 12:45:52;;;;;;;7.90;7.20;;;13.10;99.90;;;;;;5068988;28;20427;-68
2023/10/22 12:48:20;;;;;;;8.00;7.40;;;13.10;99.90;;;;;;5069067;28;20817;-69
2023/10/22 12:50:50;;;;;;;7.40;6.80;;;13.20;99.90;;;;;;5068460;28;20412;-68
2023/10/22 12:53:16;;;;;;;7.70;7.10;;;13.30;99.90;;;;;;5069592;28;20423;-70